createdAt,value
2018-04-24T08:12:08.640Z,1009.65
2018-04-24T08:13:06.613Z,1009.63
2018-04-24T08:14:06.589Z,1009.57
2018-04-24T08:15:06.609Z,1009.64
2018-04-24T08:16:06.671Z,1009.58
2018-04-24T08:17:06.623Z,1009.59
2018-04-24T08:18:06.633Z,1009.55
2018-04-24T08:19:06.645Z,1009.54
2018-04-24T08:20:06.648Z,1009.62
2018-04-24T08:21:06.699Z,1009.56
2018-04-24T08:22:06.679Z,1009.65
2018-04-24T08:23:06.694Z,1009.72
2018-04-24T08:24:06.688Z,1009.63
2018-04-24T08:25:06.694Z,1009.71
2018-04-24T08:26:06.713Z,1009.67
2018-04-24T08:27:06.721Z,1009.64
2018-04-24T08:28:06.732Z,1009.68
2018-04-24T08:29:06.774Z,1009.68
2018-04-24T08:30:06.752Z,1009.68
2018-04-24T08:31:06.776Z,1009.68
2018-04-24T08:32:06.767Z,1009.69
2018-04-24T08:33:06.791Z,1009.70
2018-04-24T08:34:06.823Z,1009.74
2018-04-24T08:35:06.800Z,1009.88
2018-04-24T08:36:06.864Z,1009.84
2018-04-24T08:37:06.815Z,1009.85
2018-04-24T08:38:06.823Z,1009.82
2018-04-24T08:39:06.851Z,1009.79
2018-04-24T08:40:06.970Z,1009.86
2018-04-24T08:41:06.867Z,1009.75
2018-04-24T08:42:06.914Z,1009.80
2018-04-24T08:43:06.979Z,1009.71
2018-04-24T08:44:06.904Z,1009.78
2018-04-24T08:45:06.916Z,1009.79
2018-04-24T08:46:06.900Z,1009.83
2018-04-24T08:47:06.941Z,1009.81
2018-04-24T08:48:06.960Z,1009.79
2018-04-24T08:49:06.947Z,1009.94
2018-04-24T08:50:06.990Z,1009.70
2018-04-24T08:51:06.958Z,1009.79
2018-04-24T08:52:06.970Z,1009.83
2018-04-24T08:53:06.984Z,1009.86
2018-04-24T08:54:06.996Z,1009.81
2018-04-24T08:55:07.019Z,1009.80
2018-04-24T08:56:07.015Z,1009.85
2018-04-24T08:57:07.066Z,1009.77
2018-04-24T08:58:07.024Z,1009.82
2018-04-24T08:59:07.093Z,1009.79
2018-04-24T09:00:07.077Z,1009.86
2018-04-24T09:01:07.059Z,1009.77
2018-04-24T09:02:07.104Z,1009.82
2018-04-24T09:03:07.084Z,1009.79
2018-04-24T09:04:07.100Z,1009.76
2018-04-24T09:05:07.153Z,1009.74
2018-04-24T09:06:07.114Z,1009.64
2018-04-24T09:07:07.146Z,1009.65
2018-04-24T09:08:07.174Z,1009.69
2018-04-24T09:09:07.170Z,1009.66
2018-04-24T09:10:07.182Z,1009.74
2018-04-24T09:11:07.184Z,1009.72
2018-04-24T09:12:07.179Z,1009.67
2018-04-24T09:13:07.193Z,1009.66
2018-04-24T09:14:07.275Z,1009.66
2018-04-24T09:15:07.253Z,1009.61
2018-04-24T09:16:07.250Z,1009.63
2018-04-24T09:17:07.221Z,1009.65
2018-04-24T09:18:07.325Z,1009.57
2018-04-24T09:19:07.254Z,1009.50
2018-04-24T09:20:07.289Z,1009.51
2018-04-24T09:21:07.275Z,1009.58
2018-04-24T09:22:07.300Z,1009.74
2018-04-24T09:23:07.303Z,1009.86
2018-04-24T09:24:07.309Z,1009.77
2018-04-24T09:25:07.349Z,1009.82
2018-04-24T09:26:07.326Z,1009.76
2018-04-24T09:27:07.370Z,1009.68
2018-04-24T09:28:07.348Z,1009.75
2018-04-24T09:29:07.370Z,1009.75
2018-04-24T09:30:07.371Z,1009.72
2018-04-24T09:31:07.380Z,1009.62
2018-04-24T09:32:07.389Z,1009.60
2018-04-24T09:33:07.418Z,1009.65
2018-04-24T09:34:07.418Z,1009.66
2018-04-24T09:35:07.454Z,1009.85
2018-04-24T09:36:07.470Z,1009.75
2018-04-24T09:37:07.472Z,1009.68
2018-04-24T09:38:07.457Z,1009.60
2018-04-24T09:39:07.560Z,1009.64
2018-04-24T09:40:07.504Z,1009.71
2018-04-24T09:41:07.504Z,1009.68
2018-04-24T09:42:07.524Z,1009.63
2018-04-24T09:43:07.543Z,1009.68
2018-04-24T09:44:07.524Z,1009.83
2018-04-24T09:45:07.572Z,1009.87
2018-04-24T09:46:07.553Z,1009.95
2018-04-24T09:47:07.560Z,1010.02
2018-04-24T09:48:07.606Z,1010.11
2018-04-24T09:49:07.584Z,1009.98
2018-04-24T09:50:07.620Z,1010.00
2018-04-24T09:51:07.674Z,1009.91
2018-04-24T09:52:07.617Z,1010.03
2018-04-24T09:53:07.637Z,1010.01
2018-04-24T09:54:08.215Z,1009.97
2018-04-24T09:55:07.658Z,1010.08
2018-04-24T09:56:07.677Z,1010.03
2018-04-24T09:57:07.689Z,1009.98
2018-04-24T09:58:07.772Z,1009.95
2018-04-24T09:59:07.967Z,1010.01
2018-04-24T10:00:07.719Z,1010.02
2018-04-24T10:01:07.735Z,1010.05
2018-04-24T10:02:07.783Z,1010.05
2018-04-24T10:03:07.745Z,1009.97
2018-04-24T10:04:07.804Z,1009.96
2018-04-24T10:05:07.762Z,1009.95
2018-04-24T10:06:07.820Z,1009.98
2018-04-24T10:07:07.836Z,1009.98
2018-04-24T10:08:07.808Z,1009.95
2018-04-24T10:09:07.817Z,1009.90
2018-04-24T10:10:07.835Z,1009.83
2018-04-24T10:11:07.837Z,1009.91
2018-04-24T10:12:07.841Z,1009.88
2018-04-24T10:13:07.931Z,1009.94
2018-04-24T10:14:07.897Z,1009.97
2018-04-24T10:15:07.911Z,1010.03
2018-04-24T10:16:07.907Z,1010.04
2018-04-24T10:17:07.900Z,1010.01
2018-04-24T10:18:07.945Z,1010.00
2018-04-24T10:19:07.927Z,1009.87
2018-04-24T10:20:07.976Z,1009.96
2018-04-24T10:21:07.967Z,1010.01
2018-04-24T10:22:07.966Z,1010.01
2018-04-24T10:23:07.975Z,1010.05
2018-04-24T10:24:08.001Z,1010.09
2018-04-24T10:25:08.012Z,1010.05
2018-04-24T10:26:08.014Z,1010.01
2018-04-24T10:27:08.024Z,1010.04
2018-04-24T10:28:08.061Z,1010.01
2018-04-24T10:29:08.197Z,1010.10
2018-04-24T10:30:08.058Z,1010.00
2018-04-24T10:31:08.104Z,1009.99
2018-04-24T10:32:08.070Z,1009.94
2018-04-24T10:33:08.083Z,1009.93
2018-04-24T10:34:08.137Z,1009.91
2018-04-24T10:35:08.187Z,1009.95
2018-04-24T10:36:08.127Z,1009.78
2018-04-24T10:37:08.135Z,1009.83
2018-04-24T10:38:08.138Z,1009.88
2018-04-24T10:39:08.147Z,1009.83
2018-04-24T10:40:08.163Z,1009.82
2018-04-24T10:41:08.220Z,1009.80
2018-04-24T10:42:08.184Z,1009.75
2018-04-24T10:43:08.195Z,1009.72
2018-04-24T10:44:08.204Z,1009.74
2018-04-24T10:45:08.213Z,1009.78
2018-04-24T10:46:08.251Z,1009.79
2018-04-24T10:47:08.247Z,1009.88
2018-04-24T10:48:08.291Z,1009.81
2018-04-24T10:49:08.263Z,1009.76
2018-04-24T10:50:08.274Z,1009.82
2018-04-24T10:51:08.277Z,1009.76
2018-04-24T10:52:08.345Z,1009.87
2018-04-24T10:53:08.356Z,1009.86
2018-04-24T10:54:08.339Z,1009.71
2018-04-24T10:55:08.343Z,1009.77
2018-04-24T10:56:08.334Z,1009.71
2018-04-24T10:57:08.405Z,1009.65
2018-04-24T10:58:08.374Z,1009.74
2018-04-24T10:59:08.386Z,1009.73
2018-04-24T11:00:08.404Z,1009.70
2018-04-24T11:01:08.402Z,1009.68
2018-04-24T11:02:08.412Z,1009.69
2018-04-24T11:03:08.430Z,1009.68
2018-04-24T11:04:08.433Z,1009.69
2018-04-24T11:05:08.497Z,1009.61
2018-04-24T11:06:08.457Z,1009.67
2018-04-24T11:07:08.471Z,1009.67
2018-04-24T11:08:08.478Z,1009.68
2018-04-24T11:09:08.491Z,1009.65
2018-04-24T11:10:08.508Z,1009.66
2018-04-24T11:11:08.513Z,1009.68
2018-04-24T11:12:08.528Z,1009.67
2018-04-24T11:13:08.542Z,1009.63
2018-04-24T11:14:08.541Z,1009.70
2018-04-24T11:15:08.619Z,1009.69
2018-04-24T11:16:08.600Z,1009.69
2018-04-24T11:17:08.632Z,1009.72
2018-04-24T11:18:08.602Z,1009.68
2018-04-24T11:19:08.605Z,1009.79
2018-04-24T11:20:08.648Z,1009.74
2018-04-24T11:21:08.622Z,1009.68
2018-04-24T11:22:08.645Z,1009.69
2018-04-24T11:23:08.671Z,1009.64
2018-04-24T11:24:08.663Z,1009.71
2018-04-24T11:25:08.683Z,1009.77
2018-04-24T11:26:08.720Z,1009.75
2018-04-24T11:27:08.707Z,1009.76
2018-04-24T11:28:08.710Z,1009.75
2018-04-24T11:29:08.751Z,1009.74
2018-04-24T11:30:08.729Z,1009.73
2018-04-24T11:31:08.743Z,1009.74
2018-04-24T11:32:08.758Z,1009.71
2018-04-24T11:33:08.769Z,1009.68
2018-04-24T11:34:08.780Z,1009.66
2018-04-24T11:35:08.878Z,1009.69
2018-04-24T11:36:08.803Z,1009.70
2018-04-24T11:37:08.814Z,1009.59
2018-04-24T11:38:08.902Z,1009.71
2018-04-24T11:39:08.859Z,1009.79
2018-04-24T11:40:08.894Z,1009.70
2018-04-24T11:41:08.891Z,1009.75
2018-04-24T11:42:08.885Z,1009.79
2018-04-24T11:43:08.933Z,1009.76
2018-04-24T11:44:08.912Z,1009.79
2018-04-24T11:45:08.940Z,1009.83
2018-04-24T11:46:08.934Z,1009.83
2018-04-24T11:47:08.942Z,1009.80
2018-04-24T11:48:08.952Z,1009.87
2018-04-24T11:49:08.968Z,1009.87
2018-04-24T11:50:08.962Z,1009.81
2018-04-24T11:51:08.980Z,1009.93
2018-04-24T11:52:08.989Z,1009.91
2018-04-24T11:53:09.029Z,1009.84
2018-04-24T11:54:09.014Z,1009.93
2018-04-24T11:55:09.026Z,1009.86
2018-04-24T11:56:09.162Z,1009.92
2018-04-24T11:57:09.122Z,1009.98
2018-04-24T11:58:09.058Z,1009.90
2018-04-24T11:59:09.063Z,1009.91
2018-04-24T12:00:09.087Z,1009.98
2018-04-24T12:01:09.145Z,1009.98
2018-04-24T12:02:09.099Z,1009.95
2018-04-24T12:03:09.136Z,1009.90
2018-04-24T12:04:09.130Z,1009.92
2018-04-24T12:05:09.169Z,1009.93
2018-04-24T12:06:09.170Z,1010.02
2018-04-24T12:07:09.175Z,1009.91
2018-04-24T12:08:09.190Z,1009.99
2018-04-24T12:09:09.205Z,1010.01
2018-04-24T12:10:09.200Z,1009.96
2018-04-24T12:11:09.216Z,1009.94
2018-04-24T12:12:09.282Z,1009.98
2018-04-24T12:13:09.238Z,1009.94
2018-04-24T12:14:09.322Z,1009.91
2018-04-24T12:15:09.283Z,1010.00
2018-04-24T12:16:09.284Z,1010.08
2018-04-24T12:17:09.298Z,1009.94
2018-04-24T12:18:09.283Z,1010.05
2018-04-24T12:19:09.316Z,1009.96
2018-04-24T12:20:09.333Z,1009.98
2018-04-24T12:21:09.333Z,1009.96
2018-04-24T12:22:09.333Z,1009.85
2018-04-24T12:23:09.378Z,1009.98
2018-04-24T12:24:09.435Z,1010.02
2018-04-24T12:25:09.413Z,1009.98
2018-04-24T12:26:09.432Z,1010.04
2018-04-24T12:27:09.413Z,1009.86
2018-04-24T12:28:09.417Z,1009.88
2018-04-24T12:29:09.431Z,1009.89
2018-04-24T12:30:09.449Z,1009.81
2018-04-24T12:31:09.447Z,1009.88
2018-04-24T12:32:09.444Z,1009.83
2018-04-24T12:33:09.467Z,1009.85
2018-04-24T12:34:09.480Z,1009.86
2018-04-24T12:35:09.546Z,1009.87
2018-04-24T12:36:09.568Z,1009.74
2018-04-24T12:37:09.509Z,1009.82
2018-04-24T12:38:09.549Z,1009.85
2018-04-24T12:39:09.539Z,1009.80
2018-04-24T12:40:09.600Z,1009.84
2018-04-24T12:41:09.603Z,1009.84
2018-04-24T12:42:09.609Z,1009.82
2018-04-24T12:43:09.593Z,1009.76
2018-04-24T12:44:09.620Z,1009.75
2018-04-24T12:45:09.698Z,1009.73
2018-04-24T12:46:09.627Z,1009.78
2018-04-24T12:47:09.665Z,1009.77
2018-04-24T12:48:09.660Z,1009.69
2018-04-24T12:49:09.696Z,1009.66
2018-04-24T12:50:09.685Z,1009.61
2018-04-24T12:51:09.677Z,1009.67
2018-04-24T12:52:09.740Z,1009.66
2018-04-24T12:53:09.753Z,1009.66
2018-04-24T12:54:09.722Z,1009.70
2018-04-24T12:55:09.753Z,1009.71
2018-04-24T12:56:09.754Z,1009.74
2018-04-24T12:57:09.761Z,1009.65
2018-04-24T12:58:09.795Z,1009.70
2018-04-24T12:59:09.868Z,1009.67
2018-04-24T13:00:09.800Z,1009.70
2018-04-24T13:01:09.827Z,1009.68
2018-04-24T13:02:09.822Z,1009.66
2018-04-24T13:03:09.831Z,1009.67
2018-04-24T13:04:09.840Z,1009.61
2018-04-24T13:05:09.878Z,1009.67
2018-04-24T13:06:09.876Z,1009.67
2018-04-24T13:07:09.910Z,1009.72
2018-04-24T13:08:09.911Z,1009.69
2018-04-24T13:09:09.914Z,1009.71
2018-04-24T13:10:09.941Z,1009.66
2018-04-24T13:11:09.932Z,1009.64
2018-04-24T13:12:09.938Z,1009.67
2018-04-24T13:13:09.956Z,1009.67
2018-04-24T13:14:09.970Z,1009.60
2018-04-24T13:15:09.987Z,1009.58
2018-04-24T13:16:10.013Z,1009.61
2018-04-24T13:17:10.026Z,1009.59
2018-04-24T13:18:10.019Z,1009.60
2018-04-24T13:19:10.091Z,1009.58
2018-04-24T13:20:10.059Z,1009.46
2018-04-24T13:21:10.065Z,1009.53
2018-04-24T13:22:10.058Z,1009.56
2018-04-24T13:23:10.089Z,1009.54
2018-04-24T13:24:10.088Z,1009.54
2018-04-24T13:25:10.092Z,1009.55
2018-04-24T13:26:10.132Z,1009.63
2018-04-24T13:27:10.138Z,1009.60
2018-04-24T13:28:10.167Z,1009.60
2018-04-24T13:29:10.189Z,1009.59
2018-04-24T13:30:10.192Z,1009.57
2018-04-24T13:31:10.243Z,1009.52
2018-04-24T13:32:10.192Z,1009.58
2018-04-24T13:33:10.205Z,1009.58
2018-04-24T13:34:10.385Z,1009.50
2018-04-24T13:35:10.276Z,1009.52
2018-04-24T13:36:10.273Z,1009.60
2018-04-24T13:37:10.248Z,1009.50
2018-04-24T13:38:10.252Z,1009.52
2018-04-24T13:39:10.276Z,1009.52
2018-04-24T13:40:10.275Z,1009.56
2018-04-24T13:41:10.335Z,1009.53
2018-04-24T13:43:10.316Z,1009.51
2018-04-24T13:44:10.338Z,1009.48
2018-04-24T13:45:10.335Z,1009.50
2018-04-24T13:46:10.425Z,1009.43
2018-04-24T13:47:10.357Z,1009.43
2018-04-24T13:48:10.370Z,1009.42
2018-04-24T13:49:10.416Z,1009.45
2018-04-24T13:50:10.425Z,1009.38
2018-04-24T13:51:10.408Z,1009.39
2018-04-24T13:52:10.449Z,1009.39
2018-04-24T13:53:10.427Z,1009.38
2018-04-24T13:54:10.436Z,1009.37
2018-04-24T13:55:10.447Z,1009.37
2018-04-24T13:56:10.508Z,1009.34
2018-04-24T13:57:10.485Z,1009.32
2018-04-24T13:58:10.485Z,1009.28
2018-04-24T13:59:10.505Z,1009.25
2018-04-24T14:00:10.515Z,1009.21
2018-04-24T14:01:10.512Z,1009.18
2018-04-24T14:02:10.545Z,1009.21
2018-04-24T14:03:10.552Z,1009.13
2018-04-24T14:04:10.591Z,1009.18
2018-04-24T14:05:10.585Z,1009.15
2018-04-24T14:06:10.580Z,1009.13
2018-04-24T14:07:10.625Z,1009.03
2018-04-24T14:08:10.616Z,1009.06
2018-04-24T14:09:10.605Z,1009.04
2018-04-24T14:10:10.616Z,1009.07
2018-04-24T14:11:10.639Z,1009.07
2018-04-24T14:12:10.718Z,1009.07
2018-04-24T14:13:10.677Z,1009.05
2018-04-24T14:14:10.668Z,1009.10
2018-04-24T14:15:10.684Z,1009.12
2018-04-24T14:16:10.703Z,1009.12
2018-04-24T14:17:10.767Z,1009.14
2018-04-24T14:18:10.767Z,1009.20
2018-04-24T14:19:10.760Z,1009.19
2018-04-24T14:20:10.790Z,1009.16
2018-04-24T14:21:10.737Z,1009.21
2018-04-24T14:22:10.784Z,1009.13
2018-04-24T14:23:10.790Z,1009.12
2018-04-24T14:24:10.901Z,1009.16
2018-04-24T14:25:10.795Z,1009.06
2018-04-24T14:26:10.803Z,1009.07
2018-04-24T14:27:10.815Z,1009.10
2018-04-24T14:28:10.863Z,1009.02
2018-04-24T14:29:10.926Z,1009.00
2018-04-24T14:30:10.859Z,1008.97
2018-04-24T14:31:10.894Z,1008.93
2018-04-24T14:32:10.883Z,1008.89
2018-04-24T14:33:10.888Z,1008.83
2018-04-24T14:34:10.910Z,1008.83
2018-04-24T14:35:10.938Z,1008.82
2018-04-24T14:36:10.921Z,1008.88
2018-04-24T14:37:10.986Z,1008.85
2018-04-24T14:38:10.988Z,1008.84
2018-04-24T14:39:10.963Z,1008.86
2018-04-24T14:40:10.988Z,1008.84
2018-04-24T14:41:10.991Z,1008.81
2018-04-24T14:42:11.038Z,1008.82
2018-04-24T14:43:11.005Z,1008.80
2018-04-24T14:44:11.029Z,1008.80
2018-04-24T14:45:11.021Z,1008.79
2018-04-24T14:46:11.056Z,1008.79
2018-04-24T14:47:11.056Z,1008.81
2018-04-24T14:48:11.085Z,1008.74
2018-04-24T14:49:11.074Z,1008.78
2018-04-24T14:50:11.111Z,1008.72
2018-04-24T14:52:11.103Z,1008.75
2018-04-24T14:53:11.183Z,1008.76
2018-04-24T14:54:11.151Z,1008.71
2018-04-24T14:55:11.170Z,1008.65
2018-04-24T14:56:11.165Z,1008.70
2018-04-24T14:57:11.182Z,1008.73
2018-04-24T14:58:11.208Z,1008.72
2018-04-24T14:59:11.209Z,1008.73
2018-04-24T15:00:11.216Z,1008.67
2018-04-24T15:01:11.211Z,1008.68
2018-04-24T15:02:11.265Z,1008.57
2018-04-24T15:03:11.263Z,1008.67
2018-04-24T15:04:11.299Z,1008.60
2018-04-24T15:05:11.260Z,1008.68
2018-04-24T15:06:11.295Z,1008.60
2018-04-24T15:07:11.289Z,1008.52
2018-04-24T15:08:11.306Z,1008.48
2018-04-24T15:09:11.308Z,1008.60
2018-04-24T15:10:11.316Z,1008.51
2018-04-24T15:11:11.343Z,1008.53
2018-04-24T15:12:11.614Z,1008.44
2018-04-24T15:13:11.353Z,1008.43
2018-04-24T15:14:11.463Z,1008.49
2018-04-24T15:15:11.465Z,1008.41
2018-04-24T15:16:11.387Z,1008.47
2018-04-24T15:17:11.494Z,1008.46
2018-04-24T15:18:11.447Z,1008.50
2018-04-24T15:19:11.437Z,1008.42
2018-04-24T15:20:11.455Z,1008.47
2018-04-24T15:21:11.463Z,1008.48
2018-04-24T15:22:11.466Z,1008.39
2018-04-24T15:23:11.503Z,1008.46
2018-04-24T15:24:11.483Z,1008.40
2018-04-24T15:25:11.586Z,1008.43
2018-04-24T15:26:11.532Z,1008.36
2018-04-24T15:27:11.657Z,1008.37
2018-04-24T15:28:11.598Z,1008.34
2018-04-24T15:29:11.539Z,1008.36
2018-04-24T15:30:11.567Z,1008.37
2018-04-24T15:31:11.669Z,1008.30
2018-04-24T15:32:11.593Z,1008.28
2018-04-24T15:33:11.641Z,1008.31
2018-04-24T15:34:11.619Z,1008.36
2018-04-24T15:35:11.632Z,1008.38
2018-04-24T15:36:11.656Z,1008.37
2018-04-24T15:37:11.640Z,1008.33
2018-04-24T15:38:11.677Z,1008.33
2018-04-24T15:39:11.668Z,1008.26
2018-04-24T15:40:11.682Z,1008.33
2018-04-24T15:41:11.683Z,1008.33
2018-04-24T15:42:11.722Z,1008.33
2018-04-24T15:43:11.723Z,1008.29
2018-04-24T15:44:11.725Z,1008.32
2018-04-24T15:45:11.738Z,1008.31
2018-04-24T15:46:11.772Z,1008.29
2018-04-24T15:47:11.848Z,1008.27
2018-04-24T15:48:11.773Z,1008.18
2018-04-24T15:49:11.784Z,1008.22
2018-04-24T15:50:11.792Z,1008.21
2018-04-24T15:51:11.809Z,1008.23
2018-04-24T15:52:11.809Z,1008.24
2018-04-24T15:53:11.859Z,1008.26
2018-04-24T15:54:11.881Z,1008.22
2018-04-24T15:55:11.866Z,1008.29
2018-04-24T15:56:11.885Z,1008.24
2018-04-24T15:57:11.883Z,1008.23
2018-04-24T15:58:11.951Z,1008.23
2018-04-24T15:59:11.925Z,1008.19
2018-04-24T16:00:11.921Z,1008.25
2018-04-24T16:01:11.913Z,1008.25
2018-04-24T16:02:11.973Z,1008.26
2018-04-24T16:03:11.989Z,1008.21
2018-04-24T16:04:11.996Z,1008.25
2018-04-24T16:05:11.966Z,1008.21
2018-04-24T16:06:11.976Z,1008.16
2018-04-24T16:07:12.009Z,1008.18
2018-04-24T16:08:12.015Z,1008.14
2018-04-24T16:09:12.074Z,1008.14
2018-04-24T16:10:12.034Z,1008.09
2018-04-24T16:11:12.100Z,1008.12
2018-04-24T16:12:12.167Z,1008.07
2018-04-24T16:13:12.061Z,1008.07
2018-04-24T16:14:12.169Z,1008.03
2018-04-24T16:15:12.116Z,1008.06
2018-04-24T16:16:12.382Z,1008.06
2018-04-24T16:17:12.263Z,1007.98
2018-04-24T16:18:12.142Z,1008.02
2018-04-24T16:19:12.742Z,1007.96
2018-04-24T16:20:12.159Z,1008.03
2018-04-24T16:21:12.181Z,1007.99
2018-04-24T16:22:12.188Z,1008.03
2018-04-24T16:23:12.202Z,1008.03
2018-04-24T16:24:12.220Z,1008.01
2018-04-24T16:25:12.252Z,1008.02
2018-04-24T16:26:12.766Z,1008.01
2018-04-24T16:27:12.292Z,1008.01
2018-04-24T16:28:12.267Z,1007.98
2018-04-24T16:29:12.279Z,1007.99
2018-04-24T16:30:12.386Z,1008.00
2018-04-24T16:31:12.350Z,1008.08
2018-04-24T16:32:12.303Z,1008.03
2018-04-24T16:33:12.359Z,1008.09
2018-04-24T16:34:12.307Z,1008.06
2018-04-24T16:35:12.372Z,1008.10
2018-04-24T16:36:12.373Z,1008.08
2018-04-24T16:37:12.401Z,1008.06
2018-04-24T16:38:12.448Z,1008.03
2018-04-24T16:39:12.450Z,1007.97
2018-04-24T16:40:12.488Z,1007.98
2018-04-24T16:41:12.435Z,1007.92
2018-04-24T16:42:12.419Z,1007.95
2018-04-24T16:43:12.488Z,1007.96
2018-04-24T16:44:12.457Z,1007.93
2018-04-24T16:45:12.446Z,1007.93
2018-04-24T16:46:12.469Z,1007.93
2018-04-24T16:47:12.472Z,1007.90
2018-04-24T16:48:12.566Z,1007.84
2018-04-24T16:49:12.535Z,1007.84
2018-04-24T16:50:12.531Z,1007.80
2018-04-24T16:51:12.584Z,1007.82
2018-04-24T16:52:12.559Z,1007.79
2018-04-24T16:53:12.552Z,1007.75
2018-04-24T16:54:12.568Z,1007.69
2018-04-24T16:55:12.560Z,1007.72
2018-04-24T16:56:12.615Z,1007.72
2018-04-24T16:57:12.593Z,1007.67
2018-04-24T16:58:12.696Z,1007.68
2018-04-24T16:59:12.644Z,1007.64
2018-04-24T17:00:12.658Z,1007.64
2018-04-24T17:01:12.647Z,1007.61
2018-04-24T17:03:12.724Z,1007.57
2018-04-24T17:04:12.680Z,1007.57
2018-04-24T17:05:12.688Z,1007.59
2018-04-24T17:06:12.718Z,1007.65
2018-04-24T17:07:12.739Z,1007.62
2018-04-24T17:08:12.815Z,1007.61
2018-04-24T17:09:12.747Z,1007.57
2018-04-24T17:10:12.778Z,1007.53
2018-04-24T17:11:12.775Z,1007.54
2018-04-24T17:12:12.779Z,1007.56
2018-04-24T17:13:12.791Z,1007.54
2018-04-24T17:14:12.812Z,1007.52
2018-04-24T17:15:12.830Z,1007.49
2018-04-24T17:16:12.835Z,1007.43
2018-04-24T17:17:12.834Z,1007.42
2018-04-24T17:18:12.970Z,1007.42
2018-04-24T17:19:12.888Z,1007.43
2018-04-24T17:20:12.877Z,1007.34
2018-04-24T17:21:13.041Z,1007.30
2018-04-24T17:22:12.899Z,1007.25
2018-04-24T17:23:12.964Z,1007.24
2018-04-24T17:24:12.967Z,1007.26
2018-04-24T17:25:12.947Z,1007.28
2018-04-24T17:26:12.959Z,1007.23
2018-04-24T17:27:12.982Z,1007.21
2018-04-24T17:28:12.979Z,1007.20
2018-04-24T17:29:13.159Z,1007.23
2018-04-24T17:30:13.010Z,1007.25
2018-04-24T17:31:12.996Z,1007.24
2018-04-24T17:32:13.081Z,1007.21
2018-04-24T17:33:13.026Z,1007.19
2018-04-24T17:34:13.034Z,1007.16
2018-04-24T17:35:13.054Z,1007.11
2018-04-24T17:36:13.075Z,1007.09
2018-04-24T17:37:13.124Z,1007.10
2018-04-24T17:38:13.125Z,1007.11
2018-04-24T17:39:13.118Z,1007.10
2018-04-24T17:40:13.110Z,1007.12
2018-04-24T17:41:13.174Z,1007.13
2018-04-24T17:42:13.129Z,1007.17
2018-04-24T17:43:13.157Z,1007.18
2018-04-24T17:44:13.194Z,1007.13
2018-04-24T17:45:13.179Z,1007.15
2018-04-24T17:46:13.214Z,1007.19
2018-04-24T17:47:13.252Z,1007.18
2018-04-24T17:48:13.207Z,1007.11
2018-04-24T17:49:13.217Z,1007.12
2018-04-24T17:50:13.258Z,1007.06
2018-04-24T17:51:13.241Z,1007.05
2018-04-24T17:52:13.255Z,1007.05
2018-04-24T17:53:13.311Z,1007.01
2018-04-24T17:54:13.298Z,1007.03
2018-04-24T17:55:13.297Z,1007.03
2018-04-24T17:56:13.405Z,1007.07
2018-04-24T17:57:13.351Z,1007.03
2018-04-24T17:58:13.319Z,1007.05
2018-04-24T17:59:13.342Z,1006.99
2018-04-24T18:00:13.387Z,1007.05
2018-04-24T18:01:13.364Z,1007.03
2018-04-24T18:02:13.414Z,1007.07
2018-04-24T18:03:13.413Z,1007.07
2018-04-24T18:04:13.462Z,1007.05
2018-04-24T18:05:13.416Z,1007.08
2018-04-24T18:06:13.523Z,1007.13
2018-04-24T18:07:13.431Z,1007.08
2018-04-24T18:08:13.450Z,1007.08
2018-04-24T18:09:13.477Z,1007.04
2018-04-24T18:10:13.458Z,1006.97
2018-04-24T18:12:13.530Z,1006.93
2018-04-24T18:13:13.500Z,1006.92
2018-04-24T18:14:13.696Z,1006.93
2018-04-24T18:15:13.547Z,1006.95
2018-04-24T18:16:13.548Z,1006.97
2018-04-24T18:17:13.574Z,1006.99
2018-04-24T18:18:13.642Z,1006.97
2018-04-24T18:19:13.592Z,1006.96
2018-04-24T18:20:13.649Z,1006.92
2018-04-24T18:21:13.648Z,1006.92
2018-04-24T18:22:13.624Z,1006.86
2018-04-24T18:23:13.631Z,1006.86
2018-04-24T18:24:13.695Z,1006.92
2018-04-24T18:25:13.644Z,1006.87
2018-04-24T18:26:13.708Z,1006.83
2018-04-24T18:27:13.723Z,1006.80
2018-04-24T18:28:13.680Z,1006.81
2018-04-24T18:29:13.713Z,1006.77
2018-04-24T18:30:13.732Z,1006.73
2018-04-24T18:31:13.751Z,1006.73
2018-04-24T18:32:13.752Z,1006.71
2018-04-24T18:33:13.872Z,1006.67
2018-04-24T18:34:13.863Z,1006.66
2018-04-24T18:35:13.844Z,1006.67
2018-04-24T18:36:13.799Z,1006.68
2018-04-24T18:37:13.788Z,1006.64
2018-04-24T18:38:13.896Z,1006.64
2018-04-24T18:39:13.797Z,1006.65
2018-04-24T18:40:13.932Z,1006.60
2018-04-24T18:41:13.895Z,1006.59
2018-04-24T18:42:13.847Z,1006.59
2018-04-24T18:43:13.868Z,1006.51
2018-04-24T18:44:13.869Z,1006.49
2018-04-24T18:45:13.871Z,1006.45
2018-04-24T18:46:13.887Z,1006.45
2018-04-24T18:47:13.895Z,1006.38
2018-04-24T18:48:13.923Z,1006.37
2018-04-24T18:49:13.946Z,1006.31
2018-04-24T18:50:13.966Z,1006.35
2018-04-24T18:51:13.963Z,1006.30
2018-04-24T18:52:13.952Z,1006.33
2018-04-24T18:53:14.045Z,1006.30
2018-04-24T18:54:14.004Z,1006.32
2018-04-24T18:55:14.011Z,1006.35
2018-04-24T18:56:14.135Z,1006.37
2018-04-24T18:57:14.129Z,1006.36
2018-04-24T18:59:14.093Z,1006.35
2018-04-24T19:00:14.082Z,1006.36
2018-04-24T19:01:14.199Z,1006.33
2018-04-24T19:02:14.087Z,1006.28
2018-04-24T19:03:14.160Z,1006.26
2018-04-24T19:04:14.130Z,1006.24
2018-04-24T19:05:14.275Z,1006.22
2018-04-24T19:06:14.116Z,1006.22
2018-04-24T19:07:14.164Z,1006.22
2018-04-24T19:08:14.188Z,1006.21
2018-04-24T19:09:14.161Z,1006.17
2018-04-24T19:10:14.290Z,1006.25
2018-04-24T19:11:14.170Z,1006.25
2018-04-24T19:12:14.188Z,1006.22
2018-04-24T19:13:14.214Z,1006.14
2018-04-24T19:14:14.203Z,1006.20
2018-04-24T19:15:14.222Z,1006.20
2018-04-24T19:16:14.269Z,1006.23
2018-04-24T19:17:14.248Z,1006.24
2018-04-24T19:18:14.299Z,1006.28
2018-04-24T19:19:14.291Z,1006.24
2018-04-24T19:20:14.275Z,1006.18
2018-04-24T19:21:14.278Z,1006.14
2018-04-24T19:22:14.348Z,1006.15
2018-04-24T19:23:14.304Z,1006.10
2018-04-24T19:24:14.315Z,1006.09
2018-04-24T19:25:14.391Z,1006.07
2018-04-24T19:26:14.366Z,1006.03
2018-04-24T19:27:14.366Z,1005.97
2018-04-24T19:28:14.383Z,1006.03
2018-04-24T19:29:14.419Z,1006.06
2018-04-24T19:30:14.388Z,1006.06
2018-04-24T19:31:14.479Z,1006.07
2018-04-24T19:32:14.459Z,1006.07
2018-04-24T19:33:14.427Z,1006.10
2018-04-24T19:34:14.425Z,1006.06
2018-04-24T19:35:14.462Z,1006.04
2018-04-24T19:36:14.499Z,1005.99
2018-04-24T19:37:14.502Z,1006.02
2018-04-24T19:38:14.513Z,1006.00
2018-04-24T19:39:14.575Z,1005.95
2018-04-24T19:40:14.568Z,1005.96
2018-04-24T19:41:14.552Z,1005.99
2018-04-24T19:42:14.582Z,1006.02
2018-04-24T19:43:14.757Z,1006.02
2018-04-24T19:44:14.552Z,1006.07
2018-04-24T19:45:14.610Z,1006.03
2018-04-24T19:46:14.561Z,1006.03
2018-04-24T19:47:14.631Z,1005.99
2018-04-24T19:48:14.629Z,1005.98
2018-04-24T19:49:14.656Z,1006.00
2018-04-24T19:50:14.610Z,1005.98
2018-04-24T19:51:14.678Z,1005.97
2018-04-24T19:52:14.729Z,1005.98
2018-04-24T19:53:14.658Z,1005.95
2018-04-24T19:54:14.817Z,1005.92
2018-04-24T19:55:14.743Z,1005.93
2018-04-24T19:56:14.697Z,1005.96
2018-04-24T19:57:14.687Z,1005.95
2018-04-24T19:58:14.718Z,1005.93
2018-04-24T19:59:14.707Z,1005.91
2018-04-24T20:00:14.734Z,1005.90
2018-04-24T20:01:14.747Z,1005.92
2018-04-24T20:02:14.755Z,1005.92
2018-04-24T20:03:14.770Z,1005.91
2018-04-24T20:04:14.828Z,1005.85
2018-04-24T20:05:14.848Z,1005.91
2018-04-24T20:06:14.855Z,1005.88
2018-04-24T20:07:14.821Z,1005.87
2018-04-24T20:08:14.831Z,1005.87
2018-04-24T20:09:14.865Z,1005.82
2018-04-24T20:10:14.882Z,1005.82
2018-04-24T20:11:14.900Z,1005.81
2018-04-24T20:12:14.901Z,1005.79
2018-04-24T20:13:14.865Z,1005.78
2018-04-24T20:14:14.897Z,1005.78
2018-04-24T20:15:14.928Z,1005.71
2018-04-24T20:16:14.935Z,1005.73
2018-04-24T20:17:14.932Z,1005.66
2018-04-24T20:18:15.024Z,1005.68
2018-04-24T20:19:14.953Z,1005.65
2018-04-24T20:20:14.957Z,1005.63
2018-04-24T20:21:14.974Z,1005.65
2018-04-24T20:22:14.975Z,1005.62